Time;durP1;ratioP1;P1;durP2;ratioP2;P2;SDS_P1;SDS_P2;PMS_P1;PMS_P2;Temp;Humidity;BMP_temperature;BMP_pressure;BME280_temperature;BME280_humidity;BME280_pressure;Samples;Min_cycle;Max_cycle;Signal;HPM_P1;HPM_P2
2022/06/17 00:04:43;;;;;;;4.13;1.80;;;19.30;62.70;;;;;;10428123;28;20831;-68
2022/06/17 00:09:44;;;;;;;3.43;2.07;;;19.20;63.20;;;;;;10433807;28;20281;-68
2022/06/17 00:20:16;;;;;;;2.60;2.07;;;19.10;64.10;;;;;;10418841;28;20501;-68
2022/06/17 00:25:26;;;;;;;7.07;1.90;;;18.90;64.40;;;;;;10436474;28;20278;-69
2022/06/17 00:30:30;;;;;;;2.03;1.40;;;18.80;64.80;;;;;;10430325;28;20288;-69
2022/06/17 00:35:35;;;;;;;3.70;1.50;;;18.60;65.20;;;;;;10433353;28;20223;-68
2022/06/17 00:40:35;;;;;;;3.67;1.53;;;18.50;65.90;;;;;;10429295;28;20224;-68
2022/06/17 00:45:44;;;;;;;2.07;1.50;;;18.40;66.50;;;;;;10431235;28;20243;-69
2022/06/17 00:50:53;;;;;;;4.30;1.53;;;18.40;67.00;;;;;;10430480;28;20249;-68
2022/06/17 00:56:18;;;;;;;2.93;1.50;;;18.40;67.00;;;;;;10428648;28;20225;-69
2022/06/17 01:01:22;;;;;;;2.90;1.37;;;18.40;66.80;;;;;;10420548;28;20239;-69
2022/06/17 01:06:30;;;;;;;1.93;1.60;;;18.40;66.90;;;;;;10426447;28;20242;-69
2022/06/17 01:11:32;;;;;;;2.43;1.47;;;18.40;67.10;;;;;;10432954;28;20220;-69
2022/06/17 01:16:39;;;;;;;2.47;1.33;;;18.30;67.40;;;;;;10424660;28;20247;-69
2022/06/17 01:21:47;;;;;;;3.17;1.80;;;18.30;67.80;;;;;;10428625;28;20227;-69
2022/06/17 01:26:48;;;;;;;2.93;2.00;;;18.20;68.30;;;;;;10416347;28;20251;-69
2022/06/17 01:31:52;;;;;;;2.00;1.80;;;18.10;69.10;;;;;;10434107;28;20211;-68
2022/06/17 01:36:54;;;;;;;4.67;1.67;;;18.00;69.60;;;;;;10431861;28;20263;-67
2022/06/17 01:41:55;;;;;;;1.53;1.30;;;17.90;69.90;;;;;;10434916;28;20219;-68
2022/06/17 01:46:57;;;;;;;2.00;1.40;;;17.80;70.40;;;;;;10433009;28;20938;-68
2022/06/17 01:52:10;;;;;;;3.40;1.70;;;17.80;70.90;;;;;;10432651;28;20229;-69
2022/06/17 01:57:16;;;;;;;3.07;1.70;;;17.60;71.20;;;;;;10432586;28;20228;-68
2022/06/17 02:02:18;;;;;;;3.43;1.60;;;17.50;72.20;;;;;;10425079;28;20212;-68
2022/06/17 02:07:33;;;;;;;3.70;1.50;;;17.30;73.20;;;;;;10433584;28;20296;-68
2022/06/17 02:12:35;;;;;;;3.57;1.60;;;17.20;73.80;;;;;;10435881;28;20343;-69
2022/06/17 02:17:41;;;;;;;2.30;1.50;;;17.10;74.40;;;;;;10434629;28;20239;-68
2022/06/17 02:22:43;;;;;;;2.60;1.77;;;17.00;74.80;;;;;;10436793;28;20217;-69
2022/06/17 02:27:45;;;;;;;5.13;1.80;;;17.00;75.70;;;;;;10435046;28;20247;-67
2022/06/17 02:32:47;;;;;;;3.73;1.77;;;16.90;76.10;;;;;;10438691;28;20909;-68
2022/06/17 02:37:48;;;;;;;4.10;2.10;;;16.80;76.80;;;;;;10433403;28;20756;-68
2022/06/17 02:42:49;;;;;;;3.27;1.93;;;16.80;77.40;;;;;;10439544;28;20216;-68
2022/06/17 02:47:51;;;;;;;1.63;1.53;;;16.80;77.70;;;;;;10434209;28;20223;-68
2022/06/17 02:52:53;;;;;;;3.43;1.90;;;16.70;78.00;;;;;;10431117;28;20223;-68
2022/06/17 02:58:02;;;;;;;4.90;1.93;;;16.70;78.40;;;;;;10432954;28;20259;-68
2022/06/17 03:03:06;;;;;;;4.00;2.13;;;16.60;78.00;;;;;;10437464;28;20212;-68
2022/06/17 03:08:17;;;;;;;1.57;1.47;;;16.70;78.10;;;;;;10434315;28;20217;-68
2022/06/17 03:13:24;;;;;;;3.27;1.50;;;16.70;77.90;;;;;;10428898;28;20784;-68
2022/06/17 03:18:26;;;;;;;3.80;1.60;;;16.80;78.50;;;;;;10437411;28;20232;-68
2022/06/17 03:23:33;;;;;;;2.10;1.60;;;16.80;79.00;;;;;;10422828;28;20212;-69
2022/06/17 03:28:39;;;;;;;2.23;1.63;;;16.80;79.20;;;;;;10427559;28;20661;-69
2022/06/17 03:33:53;;;;;;;3.03;1.87;;;16.80;79.30;;;;;;10438172;28;20247;-68
2022/06/17 03:38:58;;;;;;;2.67;1.70;;;16.80;80.00;;;;;;10427442;28;20236;-68
2022/06/17 03:44:09;;;;;;;2.87;1.80;;;16.90;79.90;;;;;;10434377;28;20216;-68
2022/06/17 03:49:41;;;;;;;3.67;1.87;;;17.00;79.70;;;;;;10437224;28;20258;-68
2022/06/17 03:54:42;;;;;;;1.67;1.50;;;17.20;78.60;;;;;;10378884;28;20233;-68
2022/06/17 03:59:49;;;;;;;4.03;1.80;;;17.30;78.10;;;;;;10421938;28;20742;-68
2022/06/17 04:04:52;;;;;;;3.80;1.90;;;17.40;77.50;;;;;;10433570;28;20796;-68
2022/06/17 04:09:53;;;;;;;3.40;2.00;;;17.50;77.50;;;;;;10428679;28;20254;-72
2022/06/17 04:15:26;;;;;;;5.67;2.10;;;17.40;76.70;;;;;;10430332;28;20233;-69
2022/06/17 04:20:30;;;;;;;3.80;2.10;;;17.40;77.20;;;;;;10425259;28;20220;-67
2022/06/17 04:25:41;;;;;;;3.40;1.67;;;17.50;76.50;;;;;;10436006;28;20216;-68
2022/06/17 04:30:45;;;;;;;4.40;1.97;;;17.50;76.40;;;;;;10436582;28;20223;-69
2022/06/17 04:35:46;;;;;;;5.33;1.93;;;17.60;76.00;;;;;;10431415;28;20246;-69
2022/06/17 04:40:54;;;;;;;5.70;1.80;;;17.90;75.30;;;;;;10431176;28;20598;-67
2022/06/17 04:46:13;;;;;;;6.77;1.90;;;18.10;74.40;;;;;;10432524;28;20230;-68
2022/06/17 04:51:14;;;;;;;4.80;1.90;;;18.20;74.20;;;;;;10426467;28;20227;-68
2022/06/17 04:56:32;;;;;;;2.50;1.50;;;18.30;73.70;;;;;;10434708;28;20239;-68
2022/06/17 05:01:33;;;;;;;4.43;1.80;;;18.30;73.40;;;;;;10424177;28;20647;-69
2022/06/17 05:06:33;;;;;;;3.33;2.10;;;18.70;72.70;;;;;;10430483;28;20303;-68
2022/06/17 05:11:39;;;;;;;3.43;1.90;;;20.40;67.00;;;;;;10435355;28;20229;-68
2022/06/17 05:16:39;;;;;;;9.27;1.97;;;21.90;60.70;;;;;;10437541;28;20308;-68
2022/06/17 05:21:42;;;;;;;7.27;2.03;;;22.60;58.10;;;;;;10425452;28;20314;-68
2022/06/17 05:26:43;;;;;;;3.17;1.53;;;22.70;57.20;;;;;;10435995;28;20220;-68
2022/06/17 05:31:49;;;;;;;3.60;1.80;;;22.70;57.10;;;;;;10435609;28;20213;-68
2022/06/17 05:36:52;;;;;;;3.97;2.03;;;23.70;55.60;;;;;;10432272;28;20228;-69
2022/06/17 05:41:52;;;;;;;3.87;1.80;;;24.80;52.40;;;;;;10437904;28;20312;-69
2022/06/17 05:46:53;;;;;;;2.93;2.00;;;25.90;49.90;;;;;;10431868;28;20291;-67
2022/06/17 05:51:53;;;;;;;3.67;1.63;;;26.20;49.10;;;;;;10427935;28;20648;-68
2022/06/17 05:56:54;;;;;;;9.57;2.20;;;26.70;48.60;;;;;;10435995;28;20220;-68
2022/06/17 06:01:55;;;;;;;2.50;1.50;;;26.90;48.00;;;;;;10434226;28;20231;-68
2022/06/17 06:06:55;;;;;;;7.90;2.10;;;28.60;45.60;;;;;;10436951;28;20222;-69
2022/06/17 06:11:56;;;;;;;8.80;2.10;;;29.50;43.50;;;;;;10439140;28;20251;-68
2022/06/17 06:16:56;;;;;;;8.07;1.93;;;29.80;42.50;;;;;;10432210;28;20241;-68
2022/06/17 06:21:57;;;;;;;4.30;1.70;;;29.80;42.80;;;;;;10435559;28;20223;-68
2022/06/17 06:26:57;;;;;;;6.73;1.87;;;30.10;41.30;;;;;;10423980;28;20228;-68
2022/06/17 06:31:58;;;;;;;3.13;1.73;;;30.80;40.70;;;;;;10435408;28;20815;-69
2022/06/17 06:36:59;;;;;;;13.80;2.20;;;30.60;40.30;;;;;;10429758;28;20227;-69
2022/06/17 06:42:00;;;;;;;9.00;2.27;;;30.20;41.20;;;;;;10429572;28;20232;-68
2022/06/17 06:47:00;;;;;;;4.27;1.80;;;29.60;41.40;;;;;;10431410;28;20263;-68
2022/06/17 06:52:01;;;;;;;5.20;1.87;;;29.60;42.00;;;;;;10434936;28;20224;-69
2022/06/17 06:57:01;;;;;;;3.63;1.73;;;30.40;40.90;;;;;;10437253;28;20258;-69
2022/06/17 07:02:02;;;;;;;5.17;1.70;;;31.00;38.90;;;;;;10422404;28;20707;-69
2022/06/17 07:07:04;;;;;;;5.07;2.03;;;32.40;37.60;;;;;;10437718;28;20315;-69
2022/06/17 07:12:08;;;;;;;4.83;1.53;;;31.80;37.30;;;;;;10435544;28;20228;-68
2022/06/17 07:17:09;;;;;;;9.00;2.03;;;32.90;35.60;;;;;;10428631;28;20228;-69
2022/06/17 07:22:10;;;;;;;5.07;1.83;;;32.80;36.40;;;;;;10437637;28;20254;-69
2022/06/17 07:27:11;;;;;;;3.10;1.60;;;33.30;35.60;;;;;;10427872;28;20220;-69
2022/06/17 07:32:11;;;;;;;2.83;1.40;;;33.50;35.20;;;;;;10436571;28;20248;-69
2022/06/17 07:42:37;;;;;;;4.40;1.40;;;33.10;34.00;;;;;;10423450;28;20242;-68
2022/06/17 07:47:40;;;;;;;4.33;1.70;;;33.30;34.80;;;;;;10430625;28;20318;-69
2022/06/17 07:52:44;;;;;;;3.07;1.40;;;34.00;34.50;;;;;;10427227;28;20773;-68
2022/06/17 07:57:45;;;;;;;4.57;1.40;;;34.30;33.20;;;;;;10426523;28;20690;-68
2022/06/17 08:02:45;;;;;;;2.47;1.37;;;35.00;33.90;;;;;;10430407;28;20217;-68
2022/06/17 08:07:46;;;;;;;4.93;1.33;;;36.40;30.80;;;;;;10425591;28;20220;-68
2022/06/17 08:12:46;;;;;;;3.20;1.40;;;35.70;31.30;;;;;;10430523;28;20222;-69
2022/06/17 08:17:48;;;;;;;3.20;1.20;;;35.80;30.80;;;;;;10429663;28;20225;-69
2022/06/17 08:22:49;;;;;;;5.17;1.63;;;36.30;29.40;;;;;;10425117;28;20221;-69
2022/06/17 08:27:55;;;;;;;3.73;1.13;;;36.70;29.70;;;;;;10434014;28;20217;-69
2022/06/17 08:32:56;;;;;;;3.33;1.47;;;36.20;29.20;;;;;;10421922;28;20322;-69
2022/06/17 08:38:03;;;;;;;1.60;1.20;;;35.80;29.70;;;;;;10427819;28;20227;-69
2022/06/17 08:43:13;;;;;;;2.47;1.33;;;36.50;29.40;;;;;;10431477;28;20208;-69
2022/06/17 08:48:38;;;;;;;2.63;1.20;;;38.70;27.20;;;;;;10425257;28;20627;-69
2022/06/17 08:53:53;;;;;;;1.70;1.10;;;39.60;26.30;;;;;;10410302;28;20232;-69
2022/06/17 08:59:13;;;;;;;2.13;1.23;;;37.70;28.00;;;;;;10425002;28;20282;-69
2022/06/17 09:04:36;;;;;;;4.17;1.40;;;37.80;27.30;;;;;;10432708;28;20302;-69
2022/06/17 09:10:01;;;;;;;3.10;1.40;;;39.50;26.60;;;;;;10420004;28;20351;-69
2022/06/17 09:15:32;;;;;;;3.70;1.40;;;40.10;25.40;;;;;;10422756;28;20717;-69
2022/06/17 09:20:40;;;;;;;3.30;1.30;;;37.80;26.90;;;;;;10421114;28;20228;-68
2022/06/17 09:25:43;;;;;;;2.60;1.30;;;38.80;26.70;;;;;;10429213;28;20224;-69
2022/06/17 09:30:54;;;;;;;1.63;1.27;;;41.40;25.80;;;;;;10423607;28;20759;-68
2022/06/17 09:36:18;;;;;;;1.43;1.17;;;40.10;24.90;;;;;;10426057;28;20227;-69
2022/06/17 09:41:42;;;;;;;2.30;1.13;;;40.30;26.20;;;;;;10416318;28;20232;-70
2022/06/17 09:46:56;;;;;;;2.22;1.30;;;41.90;23.90;;;;;;10412698;28;20252;-68
2022/06/17 09:52:09;;;;;;;2.00;1.25;;;43.20;23.40;;;;;;10428681;28;20270;-68
2022/06/17 09:57:21;;;;;;;2.37;1.23;;;42.30;23.10;;;;;;10438221;28;20228;-69
2022/06/17 10:02:35;;;;;;;2.43;1.37;;;40.50;24.20;;;;;;10424356;28;20645;-70
2022/06/17 10:07:48;;;;;;;1.52;1.27;;;41.90;23.60;;;;;;10435574;28;20271;-69
2022/06/17 10:12:58;;;;;;;3.07;1.43;;;40.70;24.20;;;;;;10435123;28;20690;-67
2022/06/17 10:18:33;;;;;;;2.93;1.13;;;40.00;24.90;;;;;;10432456;28;20232;-69
2022/06/17 10:23:57;;;;;;;2.35;1.10;;;41.60;23.60;;;;;;10426077;28;20219;-69
2022/06/17 10:29:19;;;;;;;1.73;1.27;;;41.20;23.00;;;;;;10432415;28;20303;-69
2022/06/17 10:34:32;;;;;;;1.73;1.13;;;39.10;24.70;;;;;;10422761;28;20810;-69
2022/06/17 10:39:35;;;;;;;1.30;1.20;;;40.90;23.70;;;;;;10432667;28;20224;-69
2022/06/17 10:44:37;;;;;;;8.85;1.60;;;41.60;23.60;;;;;;10434565;28;20220;-68
2022/06/17 10:49:42;;;;;;;4.63;1.20;;;43.40;22.10;;;;;;10432686;28;20311;-69
2022/06/17 10:54:46;;;;;;;1.20;1.10;;;41.80;23.40;;;;;;10436653;28;20862;-69
2022/06/17 10:59:47;;;;;;;2.73;1.40;;;40.40;24.20;;;;;;10436522;28;20234;-69
2022/06/17 11:04:52;;;;;;;5.28;1.27;;;41.80;24.30;;;;;;10417400;28;20303;-69
2022/06/17 11:09:56;;;;;;;2.65;1.20;;;44.00;22.60;;;;;;10429885;28;20890;-69
2022/06/17 11:15:05;;;;;;;1.50;1.10;;;45.20;22.00;;;;;;10433292;28;20330;-69
2022/06/17 11:20:27;;;;;;;4.57;1.50;;;43.30;22.10;;;;;;10428448;28;20286;-69
2022/06/17 11:25:36;;;;;;;4.30;1.30;;;40.40;24.30;;;;;;10409041;28;20209;-69
2022/06/17 11:30:48;;;;;;;3.47;1.27;;;41.70;24.00;;;;;;10430523;28;20306;-69
2022/06/17 11:36:06;;;;;;;5.90;1.33;;;42.90;22.90;;;;;;10429052;28;20310;-68
2022/06/17 11:41:08;;;;;;;4.43;1.33;;;40.00;25.20;;;;;;10434532;28;20227;-68
2022/06/17 11:46:12;;;;;;;1.63;1.23;;;37.60;27.10;;;;;;10427548;28;20241;-69
2022/06/17 11:51:17;;;;;;;5.70;1.70;;;35.20;29.60;;;;;;10434946;28;20306;-68
2022/06/17 11:56:48;;;;;;;2.53;1.20;;;33.90;30.10;;;;;;10417933;28;20732;-67
2022/06/17 12:02:01;;;;;;;1.50;1.40;;;32.40;31.30;;;;;;10424755;28;20293;-68
2022/06/17 12:07:01;;;;;;;2.60;1.20;;;31.50;33.70;;;;;;10434164;28;20224;-68
2022/06/17 12:12:09;;;;;;;1.30;1.10;;;31.50;33.40;;;;;;10425425;28;20707;-68
2022/06/17 12:17:15;;;;;;;1.67;1.10;;;30.90;34.10;;;;;;10426945;28;20229;-68
2022/06/17 12:22:25;;;;;;;3.33;1.20;;;30.80;34.50;;;;;;10433199;28;20270;-68
2022/06/17 12:27:31;;;;;;;18.67;1.60;;;31.10;34.40;;;;;;10411023;28;20231;-68
2022/06/17 12:32:51;;;;;;;3.53;1.40;;;31.20;34.20;;;;;;10425167;28;20580;-68
2022/06/17 12:38:15;;;;;;;2.20;1.50;;;31.30;34.60;;;;;;10430943;28;20229;-67
2022/06/17 12:43:46;;;;;;;1.40;1.20;;;31.40;34.30;;;;;;10424398;28;20235;-67
2022/06/17 12:48:52;;;;;;;0.83;0.83;;;31.30;34.00;;;;;;10427389;28;20745;-68
2022/06/17 12:54:21;;;;;;;7.00;1.70;;;31.00;34.80;;;;;;10424994;28;20754;-69
2022/06/17 12:59:32;;;;;;;1.97;1.40;;;30.70;35.10;;;;;;10425087;28;20294;-68
2022/06/17 13:04:43;;;;;;;3.27;1.27;;;30.50;35.40;;;;;;10429849;28;20223;-68
2022/06/17 13:15:40;;;;;;;1.70;1.30;;;30.30;35.30;;;;;;10421180;28;20221;-69
2022/06/17 13:21:08;;;;;;;1.20;1.10;;;30.20;35.60;;;;;;10424539;28;20213;-68
2022/06/17 13:26:19;;;;;;;4.87;1.57;;;30.00;35.90;;;;;;10431398;28;20312;-69
2022/06/17 13:31:27;;;;;;;4.67;1.13;;;30.30;35.80;;;;;;10423694;28;20318;-69
2022/06/17 13:36:43;;;;;;;1.67;1.10;;;30.70;35.30;;;;;;10437570;28;20243;-67
2022/06/17 13:41:53;;;;;;;2.87;1.27;;;31.00;34.80;;;;;;10435281;28;20585;-68
2022/06/17 13:47:03;;;;;;;1.77;1.00;;;31.10;34.30;;;;;;10424046;28;20603;-68
2022/06/17 13:52:35;;;;;;;3.00;1.20;;;30.80;33.70;;;;;;10437941;28;20227;-68
2022/06/17 13:58:07;;;;;;;3.60;1.00;;;30.60;34.50;;;;;;10425214;28;20780;-68
2022/06/17 14:03:12;;;;;;;1.70;1.00;;;30.70;33.60;;;;;;10439486;28;20216;-69
2022/06/17 14:08:18;;;;;;;2.83;1.00;;;30.80;33.20;;;;;;10429697;28;20212;-68
2022/06/17 14:13:33;;;;;;;1.47;1.20;;;31.00;33.30;;;;;;10439758;28;20225;-68
2022/06/17 14:18:48;;;;;;;3.90;1.50;;;31.00;33.90;;;;;;10430769;28;20224;-68
2022/06/17 14:23:55;;;;;;;1.00;0.90;;;31.00;34.50;;;;;;10430684;28;20246;-67
2022/06/17 14:28:55;;;;;;;2.13;1.00;;;31.10;33.50;;;;;;10432588;28;20681;-68
2022/06/17 14:33:59;;;;;;;2.10;0.90;;;31.10;34.20;;;;;;10435514;28;20264;-68
2022/06/17 14:39:09;;;;;;;2.57;0.93;;;31.10;33.70;;;;;;10426821;28;20310;-69
2022/06/17 14:44:12;;;;;;;2.00;1.20;;;31.10;33.10;;;;;;10435455;28;20224;-68
2022/06/17 14:49:41;;;;;;;3.40;0.77;;;31.00;33.50;;;;;;10429334;28;20641;-68
2022/06/17 14:54:42;;;;;;;2.37;0.83;;;31.00;33.30;;;;;;10413842;28;20221;-68
2022/06/17 14:59:47;;;;;;;2.03;0.90;;;31.00;33.60;;;;;;10429231;28;20250;-68
2022/06/17 15:04:47;;;;;;;3.67;0.87;;;30.90;33.30;;;;;;10436509;28;20217;-68
2022/06/17 15:09:55;;;;;;;1.90;0.97;;;30.90;33.10;;;;;;10432718;28;20223;-68
2022/06/17 15:15:11;;;;;;;4.53;0.90;;;30.80;33.70;;;;;;10431026;28;20977;-68
2022/06/17 15:20:19;;;;;;;2.03;0.83;;;30.90;32.80;;;;;;10428373;28;20303;-68
2022/06/17 15:25:39;;;;;;;1.63;0.80;;;30.90;32.60;;;;;;10427936;28;20283;-68
2022/06/17 15:30:42;;;;;;;2.27;0.70;;;30.90;32.70;;;;;;10433550;28;20241;-69
2022/06/17 15:36:44;;;;;;;2.17;0.70;;;30.90;31.70;;;;;;10416770;28;20246;-68
2022/06/17 15:42:18;;;;;;;1.07;0.60;;;30.80;31.80;;;;;;10412867;28;20274;-68
2022/06/17 15:47:19;;;;;;;1.63;0.60;;;30.70;31.40;;;;;;10424113;28;20314;-68
2022/06/17 15:52:27;;;;;;;2.70;0.53;;;30.60;32.10;;;;;;10428180;28;20311;-68
2022/06/17 15:57:33;;;;;;;1.27;0.60;;;30.60;31.00;;;;;;10434610;28;20291;-68
2022/06/17 16:02:36;;;;;;;0.50;0.40;;;30.50;31.60;;;;;;10432747;28;20314;-68
2022/06/17 16:07:37;;;;;;;1.03;0.50;;;30.50;30.40;;;;;;10421151;28;20704;-69
2022/06/17 16:12:44;;;;;;;1.33;0.67;;;30.40;32.20;;;;;;10428240;28;20227;-68
2022/06/17 16:17:47;;;;;;;8.93;1.00;;;30.30;33.40;;;;;;10433185;28;20224;-67
2022/06/17 16:22:49;;;;;;;1.20;0.70;;;30.30;32.90;;;;;;10429509;28;20307;-68
2022/06/17 16:27:53;;;;;;;1.63;0.73;;;30.30;31.70;;;;;;10425593;28;20733;-69
2022/06/17 16:33:04;;;;;;;2.13;0.60;;;30.20;31.80;;;;;;10429876;28;20315;-69
2022/06/17 16:38:06;;;;;;;3.33;0.70;;;30.20;32.60;;;;;;10426569;28;20223;-68
2022/06/17 16:48:54;;;;;;;2.83;0.77;;;30.00;32.30;;;;;;10429883;28;20235;-68
2022/06/17 16:53:58;;;;;;;3.43;0.77;;;30.00;32.30;;;;;;10429650;28;20249;-68
2022/06/17 16:59:01;;;;;;;1.57;0.70;;;29.90;32.20;;;;;;10432081;28;20308;-68
2022/06/17 17:04:02;;;;;;;1.63;0.93;;;29.80;32.50;;;;;;10426105;28;20596;-68
2022/06/17 17:09:06;;;;;;;1.33;0.60;;;29.80;32.80;;;;;;10433556;28;20308;-68
2022/06/17 17:14:10;;;;;;;1.50;0.70;;;29.70;32.80;;;;;;10432098;28;20230;-69
2022/06/17 17:19:11;;;;;;;1.33;0.87;;;29.70;33.50;;;;;;10425163;28;20255;-68
2022/06/17 17:24:20;;;;;;;2.30;1.73;;;29.60;33.60;;;;;;10426119;28;20761;-67
2022/06/17 17:29:20;;;;;;;3.80;0.97;;;29.50;34.00;;;;;;10420831;28;20230;-68
2022/06/17 17:34:21;;;;;;;3.67;1.27;;;29.40;33.80;;;;;;10420747;28;20231;-68
2022/06/17 17:39:25;;;;;;;1.23;0.87;;;29.40;34.50;;;;;;10431888;28;20228;-68
2022/06/17 17:44:26;;;;;;;4.23;1.30;;;29.20;34.80;;;;;;10431364;28;20217;-69
2022/06/17 17:49:27;;;;;;;1.93;0.90;;;29.10;35.20;;;;;;10425357;28;20233;-69
2022/06/17 17:54:27;;;;;;;5.17;1.70;;;29.00;35.60;;;;;;10431043;28;20303;-69
2022/06/17 17:59:29;;;;;;;1.60;0.90;;;28.80;35.70;;;;;;10424912;28;20224;-68
2022/06/17 18:04:30;;;;;;;2.77;0.90;;;28.70;35.80;;;;;;10430374;28;20247;-68
2022/06/17 18:09:31;;;;;;;3.73;1.23;;;28.50;35.60;;;;;;10424103;28;20219;-68
2022/06/17 18:14:33;;;;;;;2.90;1.00;;;28.40;36.10;;;;;;10438849;28;20223;-68
2022/06/17 18:19:34;;;;;;;1.70;0.80;;;28.20;36.50;;;;;;10432863;28;20260;-68
2022/06/17 18:24:35;;;;;;;6.77;1.97;;;28.00;37.10;;;;;;10430016;28;20244;-68
2022/06/17 18:29:36;;;;;;;3.30;1.20;;;27.90;37.70;;;;;;10439167;28;20254;-68
2022/06/17 18:34:44;;;;;;;1.40;1.30;;;27.60;38.10;;;;;;10435335;28;20286;-68
2022/06/17 18:39:45;;;;;;;6.47;1.57;;;27.40;38.70;;;;;;10434636;28;20702;-68
2022/06/17 18:44:45;;;;;;;2.50;1.40;;;27.10;40.00;;;;;;10433098;28;20349;-68
2022/06/17 18:49:50;;;;;;;4.73;1.67;;;26.90;40.70;;;;;;10434389;28;20235;-68
2022/06/17 18:54:56;;;;;;;7.60;1.27;;;26.70;41.30;;;;;;10429426;28;20306;-69
2022/06/17 18:59:56;;;;;;;2.37;1.30;;;26.50;42.20;;;;;;10428284;28;20725;-68
2022/06/17 19:04:58;;;;;;;2.33;1.53;;;26.30;42.80;;;;;;10432296;28;20255;-70
2022/06/17 19:20:40;;;;;;;3.97;2.10;;;25.60;45.80;;;;;;10435692;28;20227;-69
2022/06/17 19:25:43;;;;;;;5.17;2.50;;;25.50;46.90;;;;;;10433347;28;20224;-68
2022/06/17 19:30:43;;;;;;;5.03;3.40;;;25.40;47.30;;;;;;10428127;28;20217;-68
2022/06/17 19:35:46;;;;;;;5.87;3.90;;;25.20;47.30;;;;;;10431202;28;20227;-68
2022/06/17 19:41:42;;;;;;;6.10;3.33;;;25.00;47.80;;;;;;10435327;28;20220;-68
2022/06/17 19:46:15;;;;;;;4.60;2.70;;;24.90;48.90;;;;;;10427657;28;20734;-68
2022/06/17 19:51:18;;;;;;;6.47;4.23;;;24.80;49.60;;;;;;10431175;28;20219;-68
2022/06/17 19:56:27;;;;;;;7.00;4.00;;;24.70;48.80;;;;;;10425981;28;20239;-69
2022/06/17 20:01:34;;;;;;;3.57;2.33;;;24.70;48.70;;;;;;10428824;28;20221;-68
2022/06/17 20:06:38;;;;;;;6.00;2.13;;;24.60;48.30;;;;;;10433734;28;20248;-68
2022/06/17 20:11:39;;;;;;;4.70;2.10;;;24.50;49.40;;;;;;10430034;28;20277;-70
2022/06/17 20:16:46;;;;;;;2.77;1.97;;;24.30;50.30;;;;;;10432651;28;20644;-69
2022/06/17 20:21:48;;;;;;;3.87;2.10;;;24.20;50.80;;;;;;10431738;28;20216;-70
2022/06/17 20:26:49;;;;;;;5.40;2.87;;;24.10;50.60;;;;;;10427526;28;20667;-69
2022/06/17 20:31:53;;;;;;;5.40;2.67;;;24.00;50.60;;;;;;10436068;28;20258;-71
2022/06/17 20:36:54;;;;;;;6.57;2.17;;;24.00;50.60;;;;;;10430653;28;20228;-70
2022/06/17 20:41:58;;;;;;;3.47;2.20;;;24.00;49.90;;;;;;10436010;28;20225;-70
2022/06/17 20:52:23;;;;;;;8.90;4.50;;;24.00;50.80;;;;;;10419860;28;20739;-70
2022/06/17 21:02:48;;;;;;;5.33;3.23;;;23.90;51.90;;;;;;10435252;28;20244;-68
2022/06/17 21:07:50;;;;;;;6.47;2.43;;;23.80;53.00;;;;;;10426408;28;20266;-69
2022/06/17 21:12:50;;;;;;;6.20;2.50;;;23.60;52.30;;;;;;10431467;28;20223;-70
2022/06/17 21:17:52;;;;;;;6.63;3.27;;;23.40;53.10;;;;;;10428899;28;20226;-69
2022/06/17 21:22:52;;;;;;;7.37;3.13;;;23.40;51.70;;;;;;10426015;28;20592;-69
2022/06/17 21:27:56;;;;;;;5.10;3.53;;;23.40;52.30;;;;;;10434353;28;20229;-69
2022/06/17 21:32:57;;;;;;;5.37;3.30;;;23.30;52.60;;;;;;10430585;28;20227;-69
2022/06/17 21:38:02;;;;;;;4.63;2.50;;;23.20;52.90;;;;;;10425415;28;20227;-68
2022/06/17 21:43:05;;;;;;;2.33;1.87;;;23.10;54.10;;;;;;10428051;28;20288;-70
2022/06/17 21:48:06;;;;;;;2.93;2.10;;;23.00;54.50;;;;;;10431761;28;20232;-69
2022/06/17 21:53:24;;;;;;;4.20;1.57;;;23.00;53.50;;;;;;10432155;28;20220;-69
2022/06/17 21:58:28;;;;;;;3.00;2.00;;;22.90;53.40;;;;;;10441003;28;20234;-70
2022/06/17 22:03:29;;;;;;;3.83;2.50;;;22.80;55.00;;;;;;10434372;28;20255;-68
2022/06/17 22:08:35;;;;;;;4.57;2.20;;;22.70;55.40;;;;;;10440283;28;20522;-69
2022/06/17 22:13:36;;;;;;;3.33;1.80;;;22.60;56.20;;;;;;10436062;28;20216;-69
2022/06/17 22:18:36;;;;;;;2.57;1.93;;;22.50;56.90;;;;;;10434682;28;20282;-69
2022/06/17 22:23:37;;;;;;;2.43;1.90;;;22.40;57.20;;;;;;10437064;28;20644;-68
2022/06/17 22:28:38;;;;;;;2.27;1.97;;;22.30;57.00;;;;;;10431644;28;20367;-70
2022/06/17 22:33:38;;;;;;;2.93;1.93;;;22.30;56.70;;;;;;10434285;28;20224;-69
2022/06/17 22:38:39;;;;;;;2.40;1.80;;;22.20;57.20;;;;;;10432542;28;20229;-69
2022/06/17 22:43:42;;;;;;;2.37;1.33;;;22.20;56.00;;;;;;10437837;28;20228;-67
2022/06/17 22:48:53;;;;;;;3.40;1.10;;;22.10;56.00;;;;;;10431769;28;20661;-69
2022/06/17 22:53:54;;;;;;;4.17;1.83;;;22.10;56.70;;;;;;10436385;28;20305;-70
2022/06/17 22:58:55;;;;;;;1.63;1.53;;;21.90;56.60;;;;;;10424224;28;20275;-69
2022/06/17 23:09:18;;;;;;;2.10;1.53;;;21.90;56.30;;;;;;10430779;28;20657;-69
2022/06/17 23:14:18;;;;;;;1.30;1.20;;;21.90;55.80;;;;;;10422895;28;20934;-69
2022/06/17 23:20:10;;;;;;;1.93;1.40;;;21.90;55.40;;;;;;10437584;28;20236;-70
2022/06/17 23:24:46;;;;;;;3.90;1.63;;;21.90;55.50;;;;;;10425993;28;20257;-69
2022/06/17 23:29:47;;;;;;;1.47;1.10;;;21.90;55.70;;;;;;10430031;28;20692;-69
2022/06/17 23:34:57;;;;;;;1.93;1.30;;;21.70;56.10;;;;;;10433654;28;20642;-68
2022/06/17 23:40:01;;;;;;;1.70;1.47;;;21.60;57.20;;;;;;10431183;28;20239;-69
2022/06/17 23:45:08;;;;;;;1.27;1.17;;;21.40;58.00;;;;;;10430740;28;20220;-69
2022/06/17 23:50:34;;;;;;;3.20;1.70;;;21.30;58.20;;;;;;10428210;28;20208;-70
2022/06/17 23:55:38;;;;;;;3.27;1.57;;;21.30;58.30;;;;;;10419096;28;20223;-68
